createdAt,value
2023-03-12T00:02:52.888Z,97407.00
2023-03-12T00:06:54.114Z,97400.00
2023-03-12T00:10:55.191Z,97394.00
2023-03-12T00:14:56.488Z,97394.00
2023-03-12T00:18:57.656Z,97395.00
2023-03-12T00:22:59.063Z,97402.00
2023-03-12T00:27:00.184Z,97401.00
2023-03-12T00:31:02.902Z,97398.00
2023-03-12T00:35:05.164Z,97406.00
2023-03-12T00:39:06.904Z,97401.00
2023-03-12T00:43:07.933Z,97407.00
2023-03-12T00:47:09.326Z,97397.00
2023-03-12T00:51:11.094Z,97393.00
2023-03-12T00:55:12.078Z,97390.00
2023-03-12T00:59:14.328Z,97381.00
2023-03-12T01:03:16.093Z,97385.00
2023-03-12T01:07:17.377Z,97387.00
2023-03-12T01:11:20.026Z,97379.00
2023-03-12T01:15:21.106Z,97386.00
2023-03-12T01:19:22.736Z,97383.00
2023-03-12T01:23:23.886Z,97385.00
2023-03-12T01:27:25.071Z,97390.00
2023-03-12T01:31:26.472Z,97390.00
2023-03-12T01:35:27.619Z,97390.00
2023-03-12T01:39:29.036Z,97389.00
2023-03-12T01:43:35.914Z,97383.00
2023-03-12T01:47:36.924Z,97382.00
2023-03-12T01:51:41.668Z,97383.00
2023-03-12T01:55:43.201Z,97372.00
2023-03-12T01:59:54.264Z,97359.00
2023-03-12T02:03:57.519Z,97356.00
2023-03-12T02:07:58.989Z,97349.00
2023-03-12T02:12:00.309Z,97359.00
2023-03-12T02:16:02.046Z,97363.00
2023-03-12T02:20:19.223Z,97359.00
2023-03-12T02:24:33.145Z,97362.00
2023-03-12T02:28:38.452Z,97359.00
2023-03-12T02:32:39.705Z,97357.00
2023-03-12T02:36:40.864Z,97353.00
2023-03-12T02:40:45.671Z,97354.00
2023-03-12T02:44:46.904Z,97352.00
2023-03-12T02:48:48.174Z,97344.00
2023-03-12T02:52:49.326Z,97341.00
2023-03-12T02:56:51.912Z,97340.00
2023-03-12T03:00:52.915Z,97350.00
2023-03-12T03:04:53.926Z,97334.00
2023-03-12T03:08:55.137Z,97331.00
2023-03-12T03:12:57.086Z,97325.00
2023-03-12T03:16:58.241Z,97316.00
2023-03-12T03:21:03.068Z,97318.00
2023-03-12T03:25:05.918Z,97327.00
2023-03-12T03:29:07.109Z,97314.00
2023-03-12T03:33:08.123Z,97319.00
2023-03-12T03:37:09.493Z,97325.00
2023-03-12T03:41:10.518Z,97327.00
2023-03-12T03:45:11.780Z,97326.00
2023-03-12T03:49:12.895Z,97324.00
2023-03-12T03:53:14.032Z,97332.00
2023-03-12T03:57:14.980Z,97327.00
2023-03-12T04:01:16.086Z,97314.00
2023-03-12T04:05:19.020Z,97315.00
2023-03-12T04:09:19.950Z,97316.00
2023-03-12T04:13:21.800Z,97326.00
2023-03-12T04:17:22.764Z,97329.00
2023-03-12T04:21:23.944Z,97321.00
2023-03-12T04:25:24.904Z,97322.00
2023-03-12T04:29:26.228Z,97324.00
2023-03-12T04:33:29.346Z,97330.00
2023-03-12T04:37:33.234Z,97323.00
2023-03-12T04:41:35.123Z,97326.00
2023-03-12T04:45:38.571Z,97320.00
2023-03-12T04:49:39.712Z,97320.00
2023-03-12T04:53:40.979Z,97339.00
2023-03-12T04:57:42.104Z,97309.00
2023-03-12T05:01:43.458Z,97308.00
2023-03-12T05:05:44.972Z,97285.00
2023-03-12T05:09:46.304Z,97276.00
2023-03-12T05:13:48.204Z,97298.00
2023-03-12T05:17:49.166Z,97301.00
2023-03-12T05:21:50.402Z,97297.00
2023-03-12T05:25:51.371Z,97304.00
2023-03-12T05:29:52.627Z,97292.00
2023-03-12T05:33:54.148Z,97273.00
2023-03-12T05:37:55.187Z,97280.00
2023-03-12T05:41:56.733Z,97272.00
2023-03-12T05:46:00.352Z,97270.00
2023-03-12T05:50:01.284Z,97265.00
2023-03-12T05:54:02.866Z,97259.00
2023-03-12T05:58:05.251Z,97269.00
2023-03-12T06:02:06.364Z,97260.00
2023-03-12T06:06:07.457Z,97263.00
2023-03-12T06:10:09.845Z,97269.00
2023-03-12T06:14:12.792Z,97268.00
2023-03-12T06:18:14.568Z,97260.00
2023-03-12T06:22:15.660Z,97264.00
2023-03-12T06:26:17.770Z,97258.00
2023-03-12T06:30:18.941Z,97267.00
2023-03-12T06:34:20.019Z,97263.00
2023-03-12T06:38:21.637Z,97262.00
2023-03-12T06:42:22.951Z,97254.00
2023-03-12T06:46:25.107Z,97256.00
2023-03-12T06:50:26.398Z,97262.00
2023-03-12T06:54:27.585Z,97262.00
2023-03-12T06:58:28.980Z,97252.00
2023-03-12T07:02:30.250Z,97237.00
2023-03-12T07:06:31.586Z,97229.00
2023-03-12T07:10:32.687Z,97246.00
2023-03-12T07:14:33.658Z,97240.00
2023-03-12T07:18:34.624Z,97247.00
2023-03-12T07:22:35.737Z,97256.00
2023-03-12T07:26:36.843Z,97247.00
2023-03-12T07:30:38.241Z,97254.00
2023-03-12T07:34:39.213Z,97239.00
2023-03-12T07:38:40.385Z,97235.00
2023-03-12T07:42:41.423Z,97235.00
2023-03-12T07:46:42.969Z,97252.00
2023-03-12T07:50:44.426Z,97229.00
2023-03-12T07:54:45.861Z,97238.00
2023-03-12T07:58:46.996Z,97226.00
2023-03-12T08:02:48.192Z,97242.00
2023-03-12T08:06:49.249Z,97239.00
2023-03-12T08:10:50.319Z,97223.00
2023-03-12T08:14:51.599Z,97214.00
2023-03-12T08:18:52.638Z,97222.00
2023-03-12T08:22:53.796Z,97215.00
2023-03-12T08:26:55.448Z,97234.00
2023-03-12T08:30:59.483Z,97238.00
2023-03-12T08:35:00.654Z,97228.00
2023-03-12T08:39:01.860Z,97233.00
2023-03-12T08:43:03.394Z,97230.00
2023-03-12T08:47:04.735Z,97228.00
2023-03-12T08:51:07.085Z,97228.00
2023-03-12T08:55:09.812Z,97207.00
2023-03-12T08:59:12.261Z,97215.00
2023-03-12T09:03:14.381Z,97209.00
2023-03-12T09:07:17.779Z,97210.00
2023-03-12T09:11:18.827Z,97202.00
2023-03-12T09:15:19.858Z,97216.00
2023-03-12T09:19:21.004Z,97046.00
2023-03-12T09:23:22.984Z,97224.00
2023-03-12T09:27:24.283Z,97220.00
2023-03-12T09:31:25.782Z,97230.00
2023-03-12T09:35:26.812Z,97212.00
2023-03-12T09:39:28.120Z,97208.00
2023-03-12T09:43:35.817Z,97207.00
2023-03-12T09:47:55.422Z,97205.00
2023-03-12T09:51:58.216Z,97200.00
2023-03-12T09:56:02.562Z,97209.00
2023-03-12T10:00:06.976Z,97212.00
2023-03-12T10:04:33.204Z,97223.00
2023-03-12T10:08:59.202Z,97229.00
2023-03-12T10:13:12.955Z,97228.00
2023-03-12T10:17:39.293Z,97229.00
2023-03-12T10:21:47.048Z,97230.00
2023-03-12T10:26:04.179Z,97228.00
2023-03-12T10:30:27.362Z,97240.00
2023-03-12T10:34:41.437Z,97219.00
2023-03-12T10:38:42.714Z,97227.00
2023-03-12T10:42:44.162Z,97218.00
2023-03-12T10:47:00.932Z,97218.00
2023-03-12T10:51:08.889Z,97215.00
2023-03-12T10:55:13.753Z,97208.00
2023-03-12T10:59:20.613Z,97138.00
2023-03-12T11:03:21.988Z,97207.00
2023-03-12T11:07:31.217Z,97207.00
2023-03-12T11:11:34.362Z,97214.00
2023-03-12T11:15:42.260Z,97218.00
2023-03-12T11:19:43.303Z,97214.00
2023-03-12T11:24:00.175Z,97222.00
2023-03-12T11:28:03.573Z,97236.00
2023-03-12T11:32:17.089Z,97237.00
2023-03-12T11:36:41.514Z,97220.00
2023-03-12T11:41:03.721Z,97226.00
2023-03-12T11:45:42.033Z,97212.00
2023-03-12T11:49:55.625Z,97233.00
2023-03-12T11:54:06.340Z,97226.00
2023-03-12T11:58:27.929Z,97223.00
2023-03-12T12:02:47.787Z,97217.00
2023-03-12T12:06:55.447Z,97219.00
2023-03-12T12:11:11.770Z,97216.00
2023-03-12T12:15:22.725Z,97217.00
2023-03-12T12:19:49.001Z,97193.00
2023-03-12T12:24:17.050Z,97197.00
2023-03-12T12:28:21.444Z,97184.00
2023-03-12T12:32:41.644Z,97179.00
2023-03-12T12:36:47.639Z,97182.00
2023-03-12T12:40:52.541Z,97165.00
2023-03-12T12:44:55.396Z,97169.00
2023-03-12T12:49:05.901Z,97173.00
2023-03-12T12:53:27.083Z,97171.00
2023-03-12T12:57:41.020Z,97183.00
2023-03-12T13:01:42.869Z,97170.00
2023-03-12T13:05:49.756Z,97181.00
2023-03-12T13:09:53.101Z,97176.00
2023-03-12T13:14:06.946Z,97180.00
2023-03-12T13:18:23.303Z,97185.00
2023-03-12T13:22:40.358Z,97183.00
2023-03-12T13:27:02.986Z,97198.00
2023-03-12T13:31:25.939Z,97179.00
2023-03-12T13:35:31.143Z,97173.00
2023-03-12T13:39:34.720Z,97187.00
2023-03-12T13:43:39.639Z,97185.00
2023-03-12T13:47:42.807Z,97194.00
2023-03-12T13:51:47.665Z,97191.00
2023-03-12T13:56:07.524Z,97184.00
2023-03-12T14:00:28.679Z,97189.00
2023-03-12T14:04:36.219Z,97187.00
2023-03-12T14:08:50.349Z,97181.00
2023-03-12T14:13:07.243Z,97177.00
2023-03-12T14:17:20.673Z,97179.00
2023-03-12T14:21:23.604Z,97186.00
2023-03-12T14:25:43.138Z,97174.00
2023-03-12T14:29:47.023Z,97175.00
2023-03-12T14:33:55.305Z,97171.00
2023-03-12T14:38:05.873Z,97164.00
2023-03-12T14:42:07.978Z,97167.00
2023-03-12T14:46:21.688Z,97159.00
2023-03-12T14:50:29.299Z,97168.00
2023-03-12T14:54:30.444Z,97170.00
2023-03-12T14:58:32.668Z,97167.00
2023-03-12T15:02:37.024Z,97170.00
2023-03-12T15:06:41.882Z,97173.00
2023-03-12T15:10:55.524Z,97175.00
2023-03-12T15:15:03.683Z,97163.00
2023-03-12T15:19:05.280Z,97148.00
2023-03-12T15:23:08.943Z,97154.00
2023-03-12T15:27:28.905Z,97155.00
2023-03-12T15:31:44.503Z,97150.00
2023-03-12T15:36:01.923Z,97150.00
2023-03-12T15:40:07.538Z,97150.00
2023-03-12T15:44:15.376Z,97161.00
2023-03-12T15:48:25.889Z,97151.00
2023-03-12T15:52:30.578Z,97129.00
2023-03-12T15:56:35.133Z,97161.00
2023-03-12T16:00:44.162Z,97150.00
2023-03-12T16:04:45.326Z,97153.00
2023-03-12T16:08:50.263Z,97161.00
2023-03-12T16:12:55.327Z,97161.00
2023-03-12T16:16:56.597Z,97174.00
2023-03-12T16:20:57.611Z,97165.00
2023-03-12T16:24:58.768Z,97179.00
2023-03-12T16:29:00.036Z,97179.00
2023-03-12T16:33:04.959Z,97181.00
2023-03-12T16:37:11.412Z,97184.00
2023-03-12T16:41:15.786Z,97181.00
2023-03-12T16:45:17.993Z,97167.00
2023-03-12T16:49:20.282Z,97166.00
2023-03-12T16:53:22.279Z,97172.00
2023-03-12T16:57:36.222Z,97172.00
2023-03-12T17:01:39.001Z,97151.00
2023-03-12T17:05:40.204Z,97183.00
2023-03-12T17:09:41.389Z,97191.00
2023-03-12T17:13:43.511Z,97196.00
2023-03-12T17:17:44.903Z,97188.00
2023-03-12T17:21:48.095Z,97199.00
2023-03-12T17:25:49.251Z,97197.00
2023-03-12T17:29:50.471Z,97204.00
2023-03-12T17:33:51.537Z,97210.00
2023-03-12T17:37:52.680Z,97222.00
2023-03-12T17:41:53.840Z,97208.00
2023-03-12T17:45:54.911Z,97213.00
2023-03-12T17:49:56.066Z,97205.00
2023-03-12T17:53:57.092Z,97218.00
2023-03-12T17:57:58.266Z,97228.00
2023-03-12T18:01:59.425Z,97232.00
2023-03-12T18:06:00.762Z,97237.00
2023-03-12T18:10:01.940Z,97236.00
2023-03-12T18:14:02.984Z,97247.00
2023-03-12T18:18:04.575Z,97237.00
2023-03-12T18:22:06.860Z,97249.00
2023-03-12T18:26:07.834Z,97242.00
2023-03-12T18:30:11.987Z,97243.00
2023-03-12T18:34:13.041Z,97253.00
2023-03-12T18:38:14.115Z,97254.00
2023-03-12T18:42:15.163Z,97258.00
2023-03-12T18:46:17.998Z,97255.00
2023-03-12T18:50:19.963Z,97249.00
2023-03-12T18:54:24.493Z,97266.00
2023-03-12T18:58:27.432Z,97276.00
2023-03-12T19:02:28.683Z,97279.00
2023-03-12T19:06:40.774Z,97281.00
2023-03-12T19:10:33.211Z,97283.00
2023-03-12T19:14:34.358Z,97295.00
2023-03-12T19:18:37.252Z,97290.00
2023-03-12T19:22:38.275Z,97289.00
2023-03-12T19:26:40.018Z,97290.00
2023-03-12T19:30:40.976Z,97283.00
2023-03-12T19:34:43.398Z,97282.00
2023-03-12T19:38:44.589Z,97284.00
2023-03-12T19:42:45.661Z,97283.00
2023-03-12T19:46:46.808Z,97275.00
2023-03-12T19:50:49.053Z,97288.00
2023-03-12T19:55:03.915Z,97279.00
2023-03-12T19:58:54.710Z,97273.00
2023-03-12T20:02:56.281Z,97275.00
2023-03-12T20:06:57.395Z,97283.00
2023-03-12T20:11:03.047Z,97278.00
2023-03-12T20:15:05.344Z,97275.00
2023-03-12T20:19:06.540Z,97277.00
2023-03-12T20:23:08.135Z,97264.00
2023-03-12T20:27:09.356Z,97261.00
2023-03-12T20:31:13.288Z,97255.00
2023-03-12T20:35:14.551Z,97253.00
2023-03-12T20:39:16.062Z,97258.00
2023-03-12T20:43:17.422Z,97133.00
2023-03-12T20:47:18.493Z,97262.00
2023-03-12T20:51:19.681Z,97271.00
2023-03-12T20:55:20.787Z,97248.00
2023-03-12T20:59:21.903Z,97252.00
2023-03-12T21:03:24.301Z,97249.00
2023-03-12T21:07:25.351Z,97248.00
2023-03-12T21:11:26.533Z,97243.00
2023-03-12T21:15:27.942Z,97246.00
2023-03-12T21:19:29.641Z,97230.00
2023-03-12T21:23:31.853Z,97233.00
2023-03-12T21:27:44.578Z,97237.00
2023-03-12T21:31:36.350Z,97227.00
2023-03-12T21:35:37.349Z,97214.00
2023-03-12T21:39:38.512Z,97204.00
2023-03-12T21:43:40.292Z,97206.00
2023-03-12T21:47:41.268Z,97209.00
2023-03-12T21:51:42.246Z,97200.00
2023-03-12T21:55:47.202Z,97210.00
2023-03-12T21:59:48.426Z,97196.00
2023-03-12T22:03:49.784Z,97189.00
2023-03-12T22:07:50.777Z,97184.00
2023-03-12T22:11:51.916Z,97170.00
2023-03-12T22:16:01.459Z,97163.00
2023-03-12T22:20:03.234Z,97165.00
2023-03-12T22:24:04.823Z,97151.00
2023-03-12T22:28:05.892Z,97158.00
2023-03-12T22:32:07.005Z,97174.00
2023-03-12T22:36:11.823Z,97151.00
2023-03-12T22:40:13.666Z,97140.00
2023-03-12T22:44:14.630Z,97147.00
2023-03-12T22:48:15.622Z,97144.00
2023-03-12T22:52:16.744Z,97153.00
2023-03-12T22:56:17.848Z,97140.00
2023-03-12T23:00:23.155Z,97122.00
2023-03-12T23:04:24.267Z,97129.00
2023-03-12T23:08:25.999Z,97122.00
2023-03-12T23:12:28.116Z,97139.00
2023-03-12T23:16:29.457Z,97126.00
2023-03-12T23:20:30.597Z,97120.00
2023-03-12T23:24:32.089Z,97111.00
2023-03-12T23:28:33.357Z,97102.00
2023-03-12T23:32:34.621Z,97129.00
2023-03-12T23:36:35.601Z,97101.00
2023-03-12T23:40:36.644Z,97094.00
2023-03-12T23:44:38.310Z,97094.00
2023-03-12T23:48:40.544Z,97081.00
2023-03-12T23:52:41.517Z,97076.00
2023-03-12T23:56:42.618Z,97070.00
